sensor_id;sensor_type;location;lat;lon;timestamp;P1;durP1;ratioP1;P2;durP2;ratioP2
17854;SDS011;9053;53.358;6.382;2022-07-29T00:01:55;3.65;;;1.30;;
17854;SDS011;9053;53.358;6.382;2022-07-29T00:04:25;3.00;;;1.10;;
17854;SDS011;9053;53.358;6.382;2022-07-29T00:06:55;1.85;;;1.10;;
17854;SDS011;9053;53.358;6.382;2022-07-29T00:09:24;2.90;;;1.30;;
17854;SDS011;9053;53.358;6.382;2022-07-29T00:11:59;2.13;;;1.15;;
17854;SDS011;9053;53.358;6.382;2022-07-29T00:14:30;2.53;;;0.98;;
17854;SDS011;9053;53.358;6.382;2022-07-29T00:16:59;4.10;;;1.40;;
17854;SDS011;9053;53.358;6.382;2022-07-29T00:19:29;3.50;;;1.27;;
17854;SDS011;9053;53.358;6.382;2022-07-29T00:22:00;2.72;;;1.25;;
17854;SDS011;9053;53.358;6.382;2022-07-29T00:24:30;3.80;;;1.40;;
17854;SDS011;9053;53.358;6.382;2022-07-29T00:27:03;2.30;;;1.10;;
17854;SDS011;9053;53.358;6.382;2022-07-29T00:29:32;2.90;;;1.40;;
17854;SDS011;9053;53.358;6.382;2022-07-29T00:32:02;3.70;;;1.05;;
17854;SDS011;9053;53.358;6.382;2022-07-29T00:34:32;2.15;;;1.23;;
17854;SDS011;9053;53.358;6.382;2022-07-29T00:37:14;2.33;;;1.30;;
17854;SDS011;9053;53.358;6.382;2022-07-29T00:39:44;1.38;;;1.00;;
17854;SDS011;9053;53.358;6.382;2022-07-29T00:42:16;4.68;;;1.63;;
17854;SDS011;9053;53.358;6.382;2022-07-29T00:44:46;2.75;;;1.27;;
17854;SDS011;9053;53.358;6.382;2022-07-29T00:47:16;2.97;;;1.38;;
17854;SDS011;9053;53.358;6.382;2022-07-29T00:49:46;3.03;;;1.25;;
17854;SDS011;9053;53.358;6.382;2022-07-29T00:52:16;2.00;;;1.13;;
17854;SDS011;9053;53.358;6.382;2022-07-29T00:54:46;3.28;;;1.40;;
17854;SDS011;9053;53.358;6.382;2022-07-29T00:57:18;2.65;;;1.23;;
17854;SDS011;9053;53.358;6.382;2022-07-29T00:59:49;2.83;;;1.42;;
17854;SDS011;9053;53.358;6.382;2022-07-29T01:02:18;3.15;;;1.20;;
17854;SDS011;9053;53.358;6.382;2022-07-29T01:04:48;3.75;;;1.58;;
17854;SDS011;9053;53.358;6.382;2022-07-29T01:07:18;3.45;;;1.65;;
17854;SDS011;9053;53.358;6.382;2022-07-29T01:09:48;2.67;;;1.50;;
17854;SDS011;9053;53.358;6.382;2022-07-29T01:12:24;5.32;;;1.70;;
17854;SDS011;9053;53.358;6.382;2022-07-29T01:14:55;5.13;;;1.60;;
17854;SDS011;9053;53.358;6.382;2022-07-29T01:17:26;4.70;;;1.73;;
17854;SDS011;9053;53.358;6.382;2022-07-29T01:19:59;2.95;;;1.92;;
17854;SDS011;9053;53.358;6.382;2022-07-29T01:22:42;2.33;;;1.30;;
17854;SDS011;9053;53.358;6.382;2022-07-29T01:25:38;2.63;;;1.65;;
17854;SDS011;9053;53.358;6.382;2022-07-29T01:28:40;3.92;;;2.00;;
17854;SDS011;9053;53.358;6.382;2022-07-29T01:31:20;5.28;;;1.63;;
17854;SDS011;9053;53.358;6.382;2022-07-29T01:33:57;2.00;;;1.48;;
17854;SDS011;9053;53.358;6.382;2022-07-29T01:36:32;3.15;;;1.60;;
17854;SDS011;9053;53.358;6.382;2022-07-29T01:39:06;2.90;;;1.80;;
17854;SDS011;9053;53.358;6.382;2022-07-29T01:41:40;3.22;;;1.70;;
17854;SDS011;9053;53.358;6.382;2022-07-29T01:44:22;3.10;;;1.73;;
17854;SDS011;9053;53.358;6.382;2022-07-29T01:46:57;1.83;;;1.52;;
17854;SDS011;9053;53.358;6.382;2022-07-29T01:49:30;2.95;;;1.55;;
17854;SDS011;9053;53.358;6.382;2022-07-29T01:52:05;2.45;;;1.60;;
17854;SDS011;9053;53.358;6.382;2022-07-29T01:54:45;3.10;;;1.55;;
17854;SDS011;9053;53.358;6.382;2022-07-29T01:57:21;4.13;;;1.50;;
17854;SDS011;9053;53.358;6.382;2022-07-29T01:59:59;2.47;;;1.52;;
17854;SDS011;9053;53.358;6.382;2022-07-29T02:02:31;4.35;;;1.42;;
17854;SDS011;9053;53.358;6.382;2022-07-29T02:05:02;2.25;;;1.40;;
17854;SDS011;9053;53.358;6.382;2022-07-29T02:07:35;2.13;;;1.60;;
17854;SDS011;9053;53.358;6.382;2022-07-29T02:10:07;2.05;;;1.40;;
17854;SDS011;9053;53.358;6.382;2022-07-29T02:12:39;3.03;;;1.42;;
17854;SDS011;9053;53.358;6.382;2022-07-29T02:15:18;3.45;;;1.40;;
17854;SDS011;9053;53.358;6.382;2022-07-29T02:17:50;2.42;;;1.35;;
17854;SDS011;9053;53.358;6.382;2022-07-29T02:20:24;4.65;;;1.80;;
17854;SDS011;9053;53.358;6.382;2022-07-29T02:22:55;1.85;;;1.20;;
17854;SDS011;9053;53.358;6.382;2022-07-29T02:25:27;3.60;;;1.70;;
17854;SDS011;9053;53.358;6.382;2022-07-29T02:28:03;2.30;;;1.40;;
17854;SDS011;9053;53.358;6.382;2022-07-29T02:30:39;3.28;;;1.50;;
17854;SDS011;9053;53.358;6.382;2022-07-29T02:33:12;3.13;;;1.55;;
17854;SDS011;9053;53.358;6.382;2022-07-29T02:35:43;4.72;;;1.77;;
17854;SDS011;9053;53.358;6.382;2022-07-29T02:38:15;3.50;;;1.23;;
17854;SDS011;9053;53.358;6.382;2022-07-29T02:40:58;2.53;;;1.40;;
17854;SDS011;9053;53.358;6.382;2022-07-29T02:43:30;4.05;;;1.42;;
17854;SDS011;9053;53.358;6.382;2022-07-29T02:46:05;7.40;;;1.67;;
17854;SDS011;9053;53.358;6.382;2022-07-29T02:48:55;1.80;;;1.40;;
17854;SDS011;9053;53.358;6.382;2022-07-29T02:51:33;3.53;;;1.38;;
17854;SDS011;9053;53.358;6.382;2022-07-29T02:54:11;3.60;;;1.50;;
17854;SDS011;9053;53.358;6.382;2022-07-29T02:56:48;2.22;;;1.50;;
17854;SDS011;9053;53.358;6.382;2022-07-29T02:59:22;2.33;;;1.30;;
17854;SDS011;9053;53.358;6.382;2022-07-29T03:01:58;3.17;;;1.40;;
17854;SDS011;9053;53.358;6.382;2022-07-29T03:04:29;3.15;;;1.40;;
17854;SDS011;9053;53.358;6.382;2022-07-29T03:07:01;2.53;;;1.13;;
17854;SDS011;9053;53.358;6.382;2022-07-29T03:09:32;4.15;;;1.60;;
17854;SDS011;9053;53.358;6.382;2022-07-29T03:12:03;3.53;;;1.77;;
17854;SDS011;9053;53.358;6.382;2022-07-29T03:14:34;3.83;;;1.40;;
17854;SDS011;9053;53.358;6.382;2022-07-29T03:17:08;2.92;;;1.40;;
17854;SDS011;9053;53.358;6.382;2022-07-29T03:19:39;3.38;;;1.40;;
17854;SDS011;9053;53.358;6.382;2022-07-29T03:22:09;3.15;;;1.60;;
17854;SDS011;9053;53.358;6.382;2022-07-29T03:24:39;3.97;;;1.80;;
17854;SDS011;9053;53.358;6.382;2022-07-29T03:27:12;2.75;;;1.27;;
17854;SDS011;9053;53.358;6.382;2022-07-29T03:29:42;2.85;;;1.60;;
17854;SDS011;9053;53.358;6.382;2022-07-29T03:32:18;2.35;;;1.58;;
17854;SDS011;9053;53.358;6.382;2022-07-29T03:34:50;3.05;;;1.48;;
17854;SDS011;9053;53.358;6.382;2022-07-29T03:37:20;4.97;;;1.48;;
17854;SDS011;9053;53.358;6.382;2022-07-29T03:39:50;2.15;;;1.27;;
17854;SDS011;9053;53.358;6.382;2022-07-29T03:42:22;4.85;;;1.92;;
17854;SDS011;9053;53.358;6.382;2022-07-29T03:44:59;4.65;;;1.60;;
17854;SDS011;9053;53.358;6.382;2022-07-29T03:47:37;4.47;;;1.58;;
17854;SDS011;9053;53.358;6.382;2022-07-29T03:50:17;3.85;;;1.40;;
17854;SDS011;9053;53.358;6.382;2022-07-29T03:52:48;2.35;;;1.60;;
17854;SDS011;9053;53.358;6.382;2022-07-29T03:55:18;3.30;;;1.42;;
17854;SDS011;9053;53.358;6.382;2022-07-29T03:57:48;4.40;;;1.55;;
17854;SDS011;9053;53.358;6.382;2022-07-29T04:00:19;3.60;;;1.48;;
17854;SDS011;9053;53.358;6.382;2022-07-29T04:02:52;5.68;;;1.98;;
17854;SDS011;9053;53.358;6.382;2022-07-29T04:05:22;2.75;;;1.65;;
17854;SDS011;9053;53.358;6.382;2022-07-29T04:07:51;2.75;;;1.50;;
17854;SDS011;9053;53.358;6.382;2022-07-29T04:10:22;2.53;;;1.30;;
17854;SDS011;9053;53.358;6.382;2022-07-29T04:12:57;3.38;;;1.40;;
17854;SDS011;9053;53.358;6.382;2022-07-29T04:15:27;3.88;;;1.63;;
17854;SDS011;9053;53.358;6.382;2022-07-29T04:18:00;2.95;;;1.63;;
17854;SDS011;9053;53.358;6.382;2022-07-29T04:20:29;2.33;;;1.60;;
17854;SDS011;9053;53.358;6.382;2022-07-29T04:22:59;5.43;;;1.60;;
17854;SDS011;9053;53.358;6.382;2022-07-29T04:25:29;3.20;;;1.60;;
17854;SDS011;9053;53.358;6.382;2022-07-29T04:27:59;3.35;;;1.65;;
17854;SDS011;9053;53.358;6.382;2022-07-29T04:30:32;3.58;;;1.58;;
17854;SDS011;9053;53.358;6.382;2022-07-29T04:33:05;3.63;;;1.55;;
17854;SDS011;9053;53.358;6.382;2022-07-29T04:35:36;3.53;;;1.50;;
17854;SDS011;9053;53.358;6.382;2022-07-29T04:38:17;4.53;;;1.60;;
17854;SDS011;9053;53.358;6.382;2022-07-29T04:40:47;2.67;;;1.63;;
17854;SDS011;9053;53.358;6.382;2022-07-29T04:43:17;3.13;;;1.58;;
17854;SDS011;9053;53.358;6.382;2022-07-29T04:45:48;3.75;;;1.60;;
17854;SDS011;9053;53.358;6.382;2022-07-29T04:48:21;3.63;;;1.65;;
17854;SDS011;9053;53.358;6.382;2022-07-29T04:50:54;3.15;;;1.35;;
17854;SDS011;9053;53.358;6.382;2022-07-29T04:53:24;3.08;;;1.77;;
17854;SDS011;9053;53.358;6.382;2022-07-29T04:55:54;4.55;;;1.75;;
17854;SDS011;9053;53.358;6.382;2022-07-29T04:58:24;4.00;;;1.60;;
17854;SDS011;9053;53.358;6.382;2022-07-29T05:00:54;4.75;;;1.70;;
17854;SDS011;9053;53.358;6.382;2022-07-29T05:03:26;3.70;;;1.60;;
17854;SDS011;9053;53.358;6.382;2022-07-29T05:05:56;3.28;;;1.60;;
17854;SDS011;9053;53.358;6.382;2022-07-29T05:08:26;3.53;;;1.50;;
17854;SDS011;9053;53.358;6.382;2022-07-29T05:10:56;4.57;;;1.70;;
17854;SDS011;9053;53.358;6.382;2022-07-29T05:13:37;5.63;;;1.80;;
17854;SDS011;9053;53.358;6.382;2022-07-29T05:16:12;4.47;;;1.55;;
17854;SDS011;9053;53.358;6.382;2022-07-29T05:18:44;2.95;;;1.60;;
17854;SDS011;9053;53.358;6.382;2022-07-29T05:21:14;4.40;;;1.90;;
17854;SDS011;9053;53.358;6.382;2022-07-29T05:23:44;4.18;;;1.88;;
17854;SDS011;9053;53.358;6.382;2022-07-29T05:26:14;2.95;;;1.58;;
17854;SDS011;9053;53.358;6.382;2022-07-29T05:28:44;3.03;;;1.63;;
17854;SDS011;9053;53.358;6.382;2022-07-29T05:31:13;3.88;;;1.65;;
17854;SDS011;9053;53.358;6.382;2022-07-29T05:33:46;5.28;;;2.08;;
17854;SDS011;9053;53.358;6.382;2022-07-29T05:36:16;4.78;;;1.70;;
17854;SDS011;9053;53.358;6.382;2022-07-29T05:38:46;2.95;;;1.50;;
17854;SDS011;9053;53.358;6.382;2022-07-29T05:41:17;2.95;;;1.58;;
17854;SDS011;9053;53.358;6.382;2022-07-29T05:43:47;5.30;;;1.95;;
17854;SDS011;9053;53.358;6.382;2022-07-29T05:46:17;5.63;;;1.88;;
17854;SDS011;9053;53.358;6.382;2022-07-29T05:48:49;4.13;;;1.77;;
17854;SDS011;9053;53.358;6.382;2022-07-29T05:51:19;4.38;;;1.70;;
17854;SDS011;9053;53.358;6.382;2022-07-29T05:53:49;3.38;;;1.80;;
17854;SDS011;9053;53.358;6.382;2022-07-29T05:56:19;2.53;;;1.60;;
17854;SDS011;9053;53.358;6.382;2022-07-29T05:58:49;3.75;;;1.55;;
17854;SDS011;9053;53.358;6.382;2022-07-29T06:01:18;3.60;;;1.70;;
17854;SDS011;9053;53.358;6.382;2022-07-29T06:03:52;2.92;;;1.48;;
17854;SDS011;9053;53.358;6.382;2022-07-29T06:06:22;3.22;;;1.70;;
17854;SDS011;9053;53.358;6.382;2022-07-29T06:08:52;3.35;;;1.63;;
17854;SDS011;9053;53.358;6.382;2022-07-29T06:11:22;3.08;;;1.30;;
17854;SDS011;9053;53.358;6.382;2022-07-29T06:13:52;5.28;;;1.45;;
17854;SDS011;9053;53.358;6.382;2022-07-29T06:16:22;3.55;;;1.70;;
17854;SDS011;9053;53.358;6.382;2022-07-29T06:18:58;4.30;;;1.73;;
17854;SDS011;9053;53.358;6.382;2022-07-29T06:21:27;3.97;;;1.52;;
17854;SDS011;9053;53.358;6.382;2022-07-29T06:23:57;2.00;;;1.30;;
17854;SDS011;9053;53.358;6.382;2022-07-29T06:26:27;4.00;;;1.52;;
17854;SDS011;9053;53.358;6.382;2022-07-29T06:29:03;6.05;;;1.60;;
17854;SDS011;9053;53.358;6.382;2022-07-29T06:31:32;4.32;;;1.70;;
17854;SDS011;9053;53.358;6.382;2022-07-29T06:34:05;4.40;;;1.70;;
17854;SDS011;9053;53.358;6.382;2022-07-29T06:36:36;3.88;;;1.60;;
17854;SDS011;9053;53.358;6.382;2022-07-29T06:39:06;3.22;;;1.65;;
17854;SDS011;9053;53.358;6.382;2022-07-29T06:41:37;2.60;;;1.60;;
17854;SDS011;9053;53.358;6.382;2022-07-29T06:44:07;2.55;;;1.50;;
17854;SDS011;9053;53.358;6.382;2022-07-29T06:46:37;3.63;;;1.40;;
17854;SDS011;9053;53.358;6.382;2022-07-29T06:49:09;3.63;;;1.50;;
17854;SDS011;9053;53.358;6.382;2022-07-29T06:51:40;4.82;;;1.55;;
17854;SDS011;9053;53.358;6.382;2022-07-29T06:54:10;2.95;;;1.70;;
17854;SDS011;9053;53.358;6.382;2022-07-29T06:56:40;3.55;;;1.70;;
17854;SDS011;9053;53.358;6.382;2022-07-29T06:59:11;3.25;;;1.45;;
17854;SDS011;9053;53.358;6.382;2022-07-29T07:01:42;3.97;;;1.50;;
17854;SDS011;9053;53.358;6.382;2022-07-29T07:04:15;2.65;;;1.50;;
17854;SDS011;9053;53.358;6.382;2022-07-29T07:06:45;4.20;;;1.52;;
17854;SDS011;9053;53.358;6.382;2022-07-29T07:09:15;3.58;;;1.40;;
17854;SDS011;9053;53.358;6.382;2022-07-29T07:11:45;4.25;;;1.40;;
17854;SDS011;9053;53.358;6.382;2022-07-29T07:14:15;3.42;;;1.35;;
17854;SDS011;9053;53.358;6.382;2022-07-29T07:16:46;3.47;;;1.35;;
17854;SDS011;9053;53.358;6.382;2022-07-29T07:19:20;3.47;;;1.60;;
17854;SDS011;9053;53.358;6.382;2022-07-29T07:21:50;2.88;;;1.77;;
17854;SDS011;9053;53.358;6.382;2022-07-29T07:24:21;3.42;;;1.83;;
17854;SDS011;9053;53.358;6.382;2022-07-29T07:26:51;3.42;;;1.65;;
17854;SDS011;9053;53.358;6.382;2022-07-29T07:29:21;6.97;;;1.80;;
17854;SDS011;9053;53.358;6.382;2022-07-29T07:31:51;4.22;;;1.70;;
17854;SDS011;9053;53.358;6.382;2022-07-29T07:34:29;3.92;;;1.80;;
17854;SDS011;9053;53.358;6.382;2022-07-29T07:36:59;3.72;;;1.70;;
17854;SDS011;9053;53.358;6.382;2022-07-29T07:39:28;3.85;;;1.77;;
17854;SDS011;9053;53.358;6.382;2022-07-29T07:41:58;3.22;;;1.60;;
17854;SDS011;9053;53.358;6.382;2022-07-29T07:44:28;2.65;;;1.60;;
17854;SDS011;9053;53.358;6.382;2022-07-29T07:47:07;1.85;;;1.50;;
17854;SDS011;9053;53.358;6.382;2022-07-29T07:49:40;2.15;;;1.40;;
17854;SDS011;9053;53.358;6.382;2022-07-29T07:52:10;3.05;;;1.80;;
17854;SDS011;9053;53.358;6.382;2022-07-29T07:54:40;4.47;;;1.70;;
17854;SDS011;9053;53.358;6.382;2022-07-29T07:57:11;3.97;;;1.63;;
17854;SDS011;9053;53.358;6.382;2022-07-29T07:59:41;2.38;;;1.55;;
17854;SDS011;9053;53.358;6.382;2022-07-29T08:02:11;2.78;;;1.48;;
17854;SDS011;9053;53.358;6.382;2022-07-29T08:04:44;3.83;;;1.70;;
17854;SDS011;9053;53.358;6.382;2022-07-29T08:07:13;4.85;;;1.73;;
17854;SDS011;9053;53.358;6.382;2022-07-29T08:09:43;2.42;;;1.63;;
17854;SDS011;9053;53.358;6.382;2022-07-29T08:12:13;6.75;;;2.05;;
17854;SDS011;9053;53.358;6.382;2022-07-29T08:14:43;3.78;;;1.85;;
17854;SDS011;9053;53.358;6.382;2022-07-29T08:17:13;1.80;;;1.15;;
17854;SDS011;9053;53.358;6.382;2022-07-29T08:19:46;3.15;;;1.70;;
17854;SDS011;9053;53.358;6.382;2022-07-29T08:22:16;2.83;;;1.67;;
17854;SDS011;9053;53.358;6.382;2022-07-29T08:24:46;3.85;;;1.73;;
17854;SDS011;9053;53.358;6.382;2022-07-29T08:27:22;2.53;;;1.50;;
17854;SDS011;9053;53.358;6.382;2022-07-29T08:30:09;2.25;;;1.30;;
17854;SDS011;9053;53.358;6.382;2022-07-29T08:32:39;4.70;;;2.03;;
17854;SDS011;9053;53.358;6.382;2022-07-29T08:35:22;3.25;;;1.77;;
17854;SDS011;9053;53.358;6.382;2022-07-29T08:37:58;2.65;;;1.50;;
17854;SDS011;9053;53.358;6.382;2022-07-29T08:40:29;3.88;;;1.52;;
17854;SDS011;9053;53.358;6.382;2022-07-29T08:43:03;2.85;;;1.52;;
17854;SDS011;9053;53.358;6.382;2022-07-29T08:45:39;3.83;;;1.50;;
17854;SDS011;9053;53.358;6.382;2022-07-29T08:48:13;4.00;;;1.77;;
17854;SDS011;9053;53.358;6.382;2022-07-29T08:50:47;2.90;;;1.77;;
17854;SDS011;9053;53.358;6.382;2022-07-29T08:53:19;3.25;;;1.70;;
17854;SDS011;9053;53.358;6.382;2022-07-29T08:55:50;4.30;;;1.60;;
17854;SDS011;9053;53.358;6.382;2022-07-29T08:58:21;3.95;;;1.90;;
17854;SDS011;9053;53.358;6.382;2022-07-29T09:00:53;4.15;;;1.90;;
17854;SDS011;9053;53.358;6.382;2022-07-29T09:03:25;4.90;;;2.10;;
17854;SDS011;9053;53.358;6.382;2022-07-29T09:06:02;2.47;;;1.70;;
17854;SDS011;9053;53.358;6.382;2022-07-29T09:08:33;3.17;;;2.20;;
17854;SDS011;9053;53.358;6.382;2022-07-29T09:11:03;4.00;;;1.85;;
17854;SDS011;9053;53.358;6.382;2022-07-29T09:13:33;3.65;;;1.83;;
17854;SDS011;9053;53.358;6.382;2022-07-29T09:16:04;2.67;;;1.83;;
17854;SDS011;9053;53.358;6.382;2022-07-29T09:18:37;2.92;;;1.90;;
17854;SDS011;9053;53.358;6.382;2022-07-29T09:21:11;3.97;;;1.88;;
17854;SDS011;9053;53.358;6.382;2022-07-29T09:24:01;4.07;;;1.90;;
17854;SDS011;9053;53.358;6.382;2022-07-29T09:26:34;4.13;;;2.00;;
17854;SDS011;9053;53.358;6.382;2022-07-29T09:29:09;3.38;;;2.38;;
17854;SDS011;9053;53.358;6.382;2022-07-29T09:31:40;4.32;;;2.03;;
17854;SDS011;9053;53.358;6.382;2022-07-29T09:34:13;5.03;;;2.05;;
17854;SDS011;9053;53.358;6.382;2022-07-29T09:36:47;3.55;;;1.75;;
17854;SDS011;9053;53.358;6.382;2022-07-29T09:39:26;4.50;;;2.08;;
17854;SDS011;9053;53.358;6.382;2022-07-29T09:41:58;5.18;;;1.92;;
17854;SDS011;9053;53.358;6.382;2022-07-29T09:44:42;4.20;;;1.90;;
17854;SDS011;9053;53.358;6.382;2022-07-29T09:47:15;3.47;;;2.00;;
17854;SDS011;9053;53.358;6.382;2022-07-29T09:49:52;3.55;;;2.10;;
17854;SDS011;9053;53.358;6.382;2022-07-29T09:52:27;2.97;;;2.10;;
17854;SDS011;9053;53.358;6.382;2022-07-29T09:55:05;4.00;;;1.73;;
17854;SDS011;9053;53.358;6.382;2022-07-29T09:57:39;4.75;;;1.98;;
17854;SDS011;9053;53.358;6.382;2022-07-29T10:00:09;4.22;;;2.40;;
17854;SDS011;9053;53.358;6.382;2022-07-29T10:02:42;3.70;;;1.83;;
17854;SDS011;9053;53.358;6.382;2022-07-29T10:05:16;3.13;;;1.98;;
17854;SDS011;9053;53.358;6.382;2022-07-29T10:07:51;4.50;;;2.20;;
17854;SDS011;9053;53.358;6.382;2022-07-29T10:10:23;4.63;;;2.50;;
17854;SDS011;9053;53.358;6.382;2022-07-29T10:12:54;3.95;;;2.15;;
17854;SDS011;9053;53.358;6.382;2022-07-29T10:15:33;3.72;;;1.90;;
17854;SDS011;9053;53.358;6.382;2022-07-29T10:18:07;4.10;;;1.90;;
17854;SDS011;9053;53.358;6.382;2022-07-29T10:20:37;2.78;;;1.90;;
17854;SDS011;9053;53.358;6.382;2022-07-29T10:23:10;4.40;;;2.10;;
17854;SDS011;9053;53.358;6.382;2022-07-29T10:25:40;2.35;;;1.80;;
17854;SDS011;9053;53.358;6.382;2022-07-29T10:28:12;3.30;;;2.00;;
17854;SDS011;9053;53.358;6.382;2022-07-29T10:30:42;4.95;;;2.00;;
17854;SDS011;9053;53.358;6.382;2022-07-29T10:33:21;4.45;;;1.90;;
17854;SDS011;9053;53.358;6.382;2022-07-29T10:36:10;4.07;;;2.08;;
17854;SDS011;9053;53.358;6.382;2022-07-29T10:38:57;5.95;;;2.30;;
17854;SDS011;9053;53.358;6.382;2022-07-29T10:41:37;4.28;;;2.38;;
17854;SDS011;9053;53.358;6.382;2022-07-29T10:44:18;6.78;;;2.20;;
17854;SDS011;9053;53.358;6.382;2022-07-29T10:46:50;3.75;;;2.00;;
17854;SDS011;9053;53.358;6.382;2022-07-29T10:49:21;3.80;;;1.70;;
17854;SDS011;9053;53.358;6.382;2022-07-29T10:51:57;3.72;;;2.30;;
17854;SDS011;9053;53.358;6.382;2022-07-29T10:54:48;3.47;;;2.20;;
17854;SDS011;9053;53.358;6.382;2022-07-29T10:57:20;5.03;;;2.10;;
17854;SDS011;9053;53.358;6.382;2022-07-29T11:03:01;6.05;;;1.83;;
17854;SDS011;9053;53.358;6.382;2022-07-29T11:08:25;5.40;;;2.05;;
17854;SDS011;9053;53.358;6.382;2022-07-29T11:14:00;5.50;;;2.42;;
17854;SDS011;9053;53.358;6.382;2022-07-29T11:19:34;3.85;;;2.05;;
17854;SDS011;9053;53.358;6.382;2022-07-29T11:22:31;3.83;;;1.70;;
17854;SDS011;9053;53.358;6.382;2022-07-29T11:25:17;7.10;;;2.83;;
17854;SDS011;9053;53.358;6.382;2022-07-29T11:28:08;5.45;;;2.35;;
17854;SDS011;9053;53.358;6.382;2022-07-29T11:31:10;4.43;;;2.20;;
17854;SDS011;9053;53.358;6.382;2022-07-29T11:33:40;3.58;;;2.20;;
17854;SDS011;9053;53.358;6.382;2022-07-29T11:36:22;6.22;;;2.30;;
17854;SDS011;9053;53.358;6.382;2022-07-29T11:45:08;4.55;;;2.70;;
17854;SDS011;9053;53.358;6.382;2022-07-29T11:48:02;8.20;;;2.97;;
17854;SDS011;9053;53.358;6.382;2022-07-29T11:50:54;5.03;;;2.33;;
17854;SDS011;9053;53.358;6.382;2022-07-29T11:53:24;4.53;;;2.28;;
17854;SDS011;9053;53.358;6.382;2022-07-29T11:55:58;3.63;;;2.58;;
17854;SDS011;9053;53.358;6.382;2022-07-29T11:58:29;6.95;;;3.13;;
17854;SDS011;9053;53.358;6.382;2022-07-29T12:01:03;5.43;;;2.70;;
17854;SDS011;9053;53.358;6.382;2022-07-29T12:03:35;5.05;;;3.03;;
17854;SDS011;9053;53.358;6.382;2022-07-29T12:06:10;4.38;;;2.55;;
17854;SDS011;9053;53.358;6.382;2022-07-29T12:08:43;6.65;;;2.70;;
17854;SDS011;9053;53.358;6.382;2022-07-29T12:11:17;6.55;;;3.28;;
17854;SDS011;9053;53.358;6.382;2022-07-29T12:13:49;4.55;;;2.90;;
17854;SDS011;9053;53.358;6.382;2022-07-29T12:16:19;5.95;;;3.33;;
17854;SDS011;9053;53.358;6.382;2022-07-29T12:19:00;5.13;;;3.17;;
17854;SDS011;9053;53.358;6.382;2022-07-29T12:21:42;5.70;;;3.30;;
17854;SDS011;9053;53.358;6.382;2022-07-29T12:24:22;5.78;;;3.10;;
17854;SDS011;9053;53.358;6.382;2022-07-29T12:26:53;6.20;;;2.92;;
17854;SDS011;9053;53.358;6.382;2022-07-29T12:29:24;4.55;;;3.28;;
17854;SDS011;9053;53.358;6.382;2022-07-29T12:31:59;4.85;;;3.67;;
17854;SDS011;9053;53.358;6.382;2022-07-29T12:34:42;5.15;;;3.38;;
17854;SDS011;9053;53.358;6.382;2022-07-29T12:37:12;2.95;;;2.58;;
17854;SDS011;9053;53.358;6.382;2022-07-29T12:39:42;6.65;;;3.08;;
17854;SDS011;9053;53.358;6.382;2022-07-29T12:42:12;6.93;;;3.28;;
17854;SDS011;9053;53.358;6.382;2022-07-29T12:44:45;5.28;;;3.38;;
17854;SDS011;9053;53.358;6.382;2022-07-29T12:47:16;5.20;;;3.50;;
17854;SDS011;9053;53.358;6.382;2022-07-29T12:49:50;7.68;;;3.05;;
17854;SDS011;9053;53.358;6.382;2022-07-29T12:52:36;6.13;;;3.03;;
17854;SDS011;9053;53.358;6.382;2022-07-29T12:55:06;4.47;;;3.03;;
17854;SDS011;9053;53.358;6.382;2022-07-29T12:57:44;5.30;;;3.08;;
17854;SDS011;9053;53.358;6.382;2022-07-29T13:00:21;6.93;;;3.20;;
17854;SDS011;9053;53.358;6.382;2022-07-29T13:02:54;5.15;;;3.63;;
17854;SDS011;9053;53.358;6.382;2022-07-29T13:05:41;6.70;;;3.40;;
17854;SDS011;9053;53.358;6.382;2022-07-29T13:08:15;5.13;;;2.90;;
17854;SDS011;9053;53.358;6.382;2022-07-29T13:10:48;5.70;;;3.15;;
17854;SDS011;9053;53.358;6.382;2022-07-29T13:13:18;4.22;;;2.80;;
17854;SDS011;9053;53.358;6.382;2022-07-29T13:15:53;5.15;;;2.50;;
17854;SDS011;9053;53.358;6.382;2022-07-29T13:18:35;5.22;;;3.10;;
17854;SDS011;9053;53.358;6.382;2022-07-29T13:21:16;4.22;;;2.35;;
17854;SDS011;9053;53.358;6.382;2022-07-29T13:23:46;5.03;;;2.97;;
17854;SDS011;9053;53.358;6.382;2022-07-29T13:26:16;5.07;;;2.78;;
17854;SDS011;9053;53.358;6.382;2022-07-29T13:28:46;4.82;;;2.30;;
17854;SDS011;9053;53.358;6.382;2022-07-29T13:31:16;9.55;;;2.45;;
17854;SDS011;9053;53.358;6.382;2022-07-29T13:33:45;7.13;;;2.28;;
17854;SDS011;9053;53.358;6.382;2022-07-29T13:36:20;4.47;;;2.08;;
17854;SDS011;9053;53.358;6.382;2022-07-29T13:38:50;4.30;;;2.15;;
17854;SDS011;9053;53.358;6.382;2022-07-29T13:41:20;4.70;;;2.60;;
17854;SDS011;9053;53.358;6.382;2022-07-29T13:43:51;3.70;;;2.08;;
17854;SDS011;9053;53.358;6.382;2022-07-29T13:46:20;5.40;;;2.97;;
17854;SDS011;9053;53.358;6.382;2022-07-29T13:48:50;4.03;;;2.20;;
17854;SDS011;9053;53.358;6.382;2022-07-29T13:51:23;3.97;;;2.35;;
17854;SDS011;9053;53.358;6.382;2022-07-29T13:53:53;3.90;;;2.30;;
17854;SDS011;9053;53.358;6.382;2022-07-29T13:56:22;3.65;;;2.20;;
17854;SDS011;9053;53.358;6.382;2022-07-29T13:58:52;4.55;;;2.20;;
17854;SDS011;9053;53.358;6.382;2022-07-29T14:01:23;3.05;;;1.77;;
17854;SDS011;9053;53.358;6.382;2022-07-29T14:03:54;3.40;;;1.80;;
17854;SDS011;9053;53.358;6.382;2022-07-29T14:06:26;5.63;;;1.90;;
17854;SDS011;9053;53.358;6.382;2022-07-29T14:08:56;3.25;;;1.80;;
17854;SDS011;9053;53.358;6.382;2022-07-29T14:11:26;5.05;;;2.05;;
17854;SDS011;9053;53.358;6.382;2022-07-29T14:13:55;3.50;;;1.88;;
17854;SDS011;9053;53.358;6.382;2022-07-29T14:16:25;2.40;;;1.40;;
17854;SDS011;9053;53.358;6.382;2022-07-29T14:18:55;4.25;;;1.50;;
17854;SDS011;9053;53.358;6.382;2022-07-29T14:21:27;5.10;;;1.77;;
17854;SDS011;9053;53.358;6.382;2022-07-29T14:23:58;3.08;;;1.92;;
17854;SDS011;9053;53.358;6.382;2022-07-29T14:26:41;2.47;;;1.65;;
17854;SDS011;9053;53.358;6.382;2022-07-29T14:29:11;4.00;;;1.85;;
17854;SDS011;9053;53.358;6.382;2022-07-29T14:31:41;3.13;;;1.60;;
17854;SDS011;9053;53.358;6.382;2022-07-29T14:34:12;3.83;;;1.88;;
17854;SDS011;9053;53.358;6.382;2022-07-29T14:36:44;3.30;;;1.88;;
17854;SDS011;9053;53.358;6.382;2022-07-29T14:39:14;2.20;;;1.60;;
17854;SDS011;9053;53.358;6.382;2022-07-29T14:41:45;4.93;;;1.80;;
17854;SDS011;9053;53.358;6.382;2022-07-29T14:44:14;3.38;;;1.85;;
17854;SDS011;9053;53.358;6.382;2022-07-29T14:46:44;3.78;;;2.03;;
17854;SDS011;9053;53.358;6.382;2022-07-29T14:49:14;2.28;;;1.50;;
17854;SDS011;9053;53.358;6.382;2022-07-29T14:51:47;3.40;;;1.80;;
17854;SDS011;9053;53.358;6.382;2022-07-29T14:54:17;3.08;;;1.63;;
17854;SDS011;9053;53.358;6.382;2022-07-29T14:56:47;5.93;;;2.20;;
17854;SDS011;9053;53.358;6.382;2022-07-29T14:59:21;2.35;;;1.52;;
17854;SDS011;9053;53.358;6.382;2022-07-29T15:01:51;3.22;;;1.70;;
17854;SDS011;9053;53.358;6.382;2022-07-29T15:04:22;3.50;;;1.75;;
17854;SDS011;9053;53.358;6.382;2022-07-29T15:06:54;1.55;;;1.42;;
17854;SDS011;9053;53.358;6.382;2022-07-29T15:09:24;2.30;;;1.55;;
17854;SDS011;9053;53.358;6.382;2022-07-29T15:11:53;2.50;;;1.58;;
17854;SDS011;9053;53.358;6.382;2022-07-29T15:14:24;2.88;;;1.58;;
17854;SDS011;9053;53.358;6.382;2022-07-29T15:16:53;3.78;;;1.42;;
17854;SDS011;9053;53.358;6.382;2022-07-29T15:19:23;2.78;;;1.70;;
17854;SDS011;9053;53.358;6.382;2022-07-29T15:21:56;4.50;;;2.22;;
17854;SDS011;9053;53.358;6.382;2022-07-29T15:24:26;1.95;;;1.60;;
17854;SDS011;9053;53.358;6.382;2022-07-29T15:26:56;3.30;;;1.60;;
17854;SDS011;9053;53.358;6.382;2022-07-29T15:29:26;5.32;;;2.00;;
17854;SDS011;9053;53.358;6.382;2022-07-29T15:31:55;4.18;;;1.67;;
17854;SDS011;9053;53.358;6.382;2022-07-29T15:34:26;3.70;;;2.17;;
17854;SDS011;9053;53.358;6.382;2022-07-29T15:36:58;2.40;;;1.45;;
17854;SDS011;9053;53.358;6.382;2022-07-29T15:39:28;4.25;;;1.83;;
17854;SDS011;9053;53.358;6.382;2022-07-29T15:41:58;4.28;;;2.20;;
17854;SDS011;9053;53.358;6.382;2022-07-29T15:44:28;3.65;;;1.77;;
17854;SDS011;9053;53.358;6.382;2022-07-29T15:46:58;4.25;;;1.65;;
17854;SDS011;9053;53.358;6.382;2022-07-29T15:49:34;3.10;;;1.60;;
17854;SDS011;9053;53.358;6.382;2022-07-29T15:52:17;2.97;;;1.80;;
17854;SDS011;9053;53.358;6.382;2022-07-29T15:54:51;2.75;;;1.85;;